Terminal Aerodrome Forecast
Issued by NWS Sterling, VA

Current Version | Previous Version | Graphics & Text | Print | Product List | Glossary On
Versions: 1 2 3 4 5 6 7 8 9 10 11 12 13 14 15 16 17 18 19 20 21
000
FTUS41 KLWX 261124
TAFDCA
TAF
KDCA 261124Z 2612/2712 34008KT P6SM OVC011
     FM261800 33005KT P6SM SCT035
     FM270300 15004KT P6SM FEW040
     FM270500 VRB03KT 6SM BR SCT040
     FM270900 14004KT 3SM BR SCT250=

USA.gov is the U.S. government's official web portal to all federal, state and local government web resources and services.